sensor_id;sensor_type;location;lat;lon;timestamp;temperature;humidity
17992;DHT22;9121;50.926;5.340;2022-08-19T00:01:23;21.30;99.90
17992;DHT22;9121;50.926;5.340;2022-08-19T00:03:51;21.30;99.90
17992;DHT22;9121;50.926;5.340;2022-08-19T00:06:19;21.30;99.90
17992;DHT22;9121;50.926;5.340;2022-08-19T00:08:46;21.20;99.90
17992;DHT22;9121;50.926;5.340;2022-08-19T00:11:13;21.20;99.90
17992;DHT22;9121;50.926;5.340;2022-08-19T00:13:40;21.10;99.90
17992;DHT22;9121;50.926;5.340;2022-08-19T00:16:07;21.20;99.90
17992;DHT22;9121;50.926;5.340;2022-08-19T00:18:34;21.10;99.90
17992;DHT22;9121;50.926;5.340;2022-08-19T00:21:01;21.10;99.90
17992;DHT22;9121;50.926;5.340;2022-08-19T00:23:30;21.00;99.90
17992;DHT22;9121;50.926;5.340;2022-08-19T00:25:59;21.00;99.90
17992;DHT22;9121;50.926;5.340;2022-08-19T00:28:26;20.90;99.90
17992;DHT22;9121;50.926;5.340;2022-08-19T00:30:53;20.90;99.90
17992;DHT22;9121;50.926;5.340;2022-08-19T00:33:21;20.80;99.90
17992;DHT22;9121;50.926;5.340;2022-08-19T00:35:48;20.80;99.90
17992;DHT22;9121;50.926;5.340;2022-08-19T00:38:15;20.80;99.90
17992;DHT22;9121;50.926;5.340;2022-08-19T00:40:43;20.80;99.90
17992;DHT22;9121;50.926;5.340;2022-08-19T00:43:12;20.70;99.90
17992;DHT22;9121;50.926;5.340;2022-08-19T00:45:40;20.70;99.90
17992;DHT22;9121;50.926;5.340;2022-08-19T00:48:10;20.70;99.90
17992;DHT22;9121;50.926;5.340;2022-08-19T00:50:39;20.60;99.90
17992;DHT22;9121;50.926;5.340;2022-08-19T00:53:10;20.60;99.90
17992;DHT22;9121;50.926;5.340;2022-08-19T00:55:37;20.60;99.90
17992;DHT22;9121;50.926;5.340;2022-08-19T00:58:08;20.50;99.90
17992;DHT22;9121;50.926;5.340;2022-08-19T01:00:37;20.50;99.90
17992;DHT22;9121;50.926;5.340;2022-08-19T01:03:07;20.50;99.90
17992;DHT22;9121;50.926;5.340;2022-08-19T01:05:35;20.60;99.90
17992;DHT22;9121;50.926;5.340;2022-08-19T01:08:03;20.50;99.90
17992;DHT22;9121;50.926;5.340;2022-08-19T01:10:35;20.50;99.90
17992;DHT22;9121;50.926;5.340;2022-08-19T01:13:05;20.50;99.90
17992;DHT22;9121;50.926;5.340;2022-08-19T01:15:43;20.50;99.90
17992;DHT22;9121;50.926;5.340;2022-08-19T01:18:13;20.50;99.90
17992;DHT22;9121;50.926;5.340;2022-08-19T01:20:42;20.50;99.90
17992;DHT22;9121;50.926;5.340;2022-08-19T01:23:11;20.50;99.90
17992;DHT22;9121;50.926;5.340;2022-08-19T01:25:42;20.50;99.90
17992;DHT22;9121;50.926;5.340;2022-08-19T01:28:16;20.40;99.90
17992;DHT22;9121;50.926;5.340;2022-08-19T01:30:44;20.40;99.90
17992;DHT22;9121;50.926;5.340;2022-08-19T01:33:12;20.40;99.90
17992;DHT22;9121;50.926;5.340;2022-08-19T01:35:40;20.40;99.90
17992;DHT22;9121;50.926;5.340;2022-08-19T01:38:22;20.40;99.90
17992;DHT22;9121;50.926;5.340;2022-08-19T01:40:50;20.40;99.90
17992;DHT22;9121;50.926;5.340;2022-08-19T01:43:17;20.40;99.90
17992;DHT22;9121;50.926;5.340;2022-08-19T01:45:45;20.40;99.90
17992;DHT22;9121;50.926;5.340;2022-08-19T01:48:13;20.40;99.90
17992;DHT22;9121;50.926;5.340;2022-08-19T01:50:40;20.40;99.90
17992;DHT22;9121;50.926;5.340;2022-08-19T01:53:10;20.40;99.90
17992;DHT22;9121;50.926;5.340;2022-08-19T01:55:40;20.40;99.90
17992;DHT22;9121;50.926;5.340;2022-08-19T01:58:12;20.40;99.90
17992;DHT22;9121;50.926;5.340;2022-08-19T02:00:39;20.30;99.90
17992;DHT22;9121;50.926;5.340;2022-08-19T02:03:06;20.30;99.90
17992;DHT22;9121;50.926;5.340;2022-08-19T02:05:34;20.20;99.90
17992;DHT22;9121;50.926;5.340;2022-08-19T02:08:01;20.20;99.90
17992;DHT22;9121;50.926;5.340;2022-08-19T02:10:27;20.20;99.90
17992;DHT22;9121;50.926;5.340;2022-08-19T02:12:56;20.10;99.90
17992;DHT22;9121;50.926;5.340;2022-08-19T02:15:23;20.10;99.90
17992;DHT22;9121;50.926;5.340;2022-08-19T02:17:50;20.10;99.90
17992;DHT22;9121;50.926;5.340;2022-08-19T02:20:17;20.10;99.90
17992;DHT22;9121;50.926;5.340;2022-08-19T02:22:44;20.10;99.90
17992;DHT22;9121;50.926;5.340;2022-08-19T02:25:13;20.00;99.90
17992;DHT22;9121;50.926;5.340;2022-08-19T02:27:40;20.00;99.90
17992;DHT22;9121;50.926;5.340;2022-08-19T02:30:12;20.00;99.90
17992;DHT22;9121;50.926;5.340;2022-08-19T02:32:39;20.00;99.90
17992;DHT22;9121;50.926;5.340;2022-08-19T02:35:08;19.90;99.90
17992;DHT22;9121;50.926;5.340;2022-08-19T02:37:35;19.90;99.90
17992;DHT22;9121;50.926;5.340;2022-08-19T02:40:19;19.80;99.90
17992;DHT22;9121;50.926;5.340;2022-08-19T02:42:46;19.90;99.90
17992;DHT22;9121;50.926;5.340;2022-08-19T02:45:15;19.80;99.90
17992;DHT22;9121;50.926;5.340;2022-08-19T02:47:42;19.80;99.90
17992;DHT22;9121;50.926;5.340;2022-08-19T02:50:09;19.80;99.90
17992;DHT22;9121;50.926;5.340;2022-08-19T02:52:36;19.80;99.90
17992;DHT22;9121;50.926;5.340;2022-08-19T02:55:04;19.80;99.90
17992;DHT22;9121;50.926;5.340;2022-08-19T02:57:31;19.80;99.90
17992;DHT22;9121;50.926;5.340;2022-08-19T02:59:58;19.80;99.90
17992;DHT22;9121;50.926;5.340;2022-08-19T03:02:28;19.80;99.90
17992;DHT22;9121;50.926;5.340;2022-08-19T03:04:56;19.70;99.90
17992;DHT22;9121;50.926;5.340;2022-08-19T03:07:23;19.60;99.90
17992;DHT22;9121;50.926;5.340;2022-08-19T03:09:50;19.60;99.90
17992;DHT22;9121;50.926;5.340;2022-08-19T03:12:16;19.70;99.90
17992;DHT22;9121;50.926;5.340;2022-08-19T03:14:43;19.70;99.90
17992;DHT22;9121;50.926;5.340;2022-08-19T03:17:11;19.70;99.90
17992;DHT22;9121;50.926;5.340;2022-08-19T03:19:40;19.70;99.90
17992;DHT22;9121;50.926;5.340;2022-08-19T03:22:06;19.70;99.90
17992;DHT22;9121;50.926;5.340;2022-08-19T03:24:34;19.70;99.90
17992;DHT22;9121;50.926;5.340;2022-08-19T03:27:01;19.70;99.90
17992;DHT22;9121;50.926;5.340;2022-08-19T03:29:31;19.60;99.90
17992;DHT22;9121;50.926;5.340;2022-08-19T03:31:58;19.60;99.90
17992;DHT22;9121;50.926;5.340;2022-08-19T03:34:28;19.60;99.90
17992;DHT22;9121;50.926;5.340;2022-08-19T03:37:02;19.60;99.90
17992;DHT22;9121;50.926;5.340;2022-08-19T03:39:30;19.50;99.90
17992;DHT22;9121;50.926;5.340;2022-08-19T03:41:56;19.60;99.90
17992;DHT22;9121;50.926;5.340;2022-08-19T03:44:25;19.50;99.90
17992;DHT22;9121;50.926;5.340;2022-08-19T03:46:54;19.50;99.90
17992;DHT22;9121;50.926;5.340;2022-08-19T03:49:23;19.50;99.90
17992;DHT22;9121;50.926;5.340;2022-08-19T03:51:51;19.50;99.90
17992;DHT22;9121;50.926;5.340;2022-08-19T03:54:21;19.50;99.90
17992;DHT22;9121;50.926;5.340;2022-08-19T03:56:50;19.40;99.90
17992;DHT22;9121;50.926;5.340;2022-08-19T03:59:22;19.40;99.90
17992;DHT22;9121;50.926;5.340;2022-08-19T04:01:50;19.40;99.90
17992;DHT22;9121;50.926;5.340;2022-08-19T04:04:17;19.40;99.90
17992;DHT22;9121;50.926;5.340;2022-08-19T04:06:44;19.40;99.90
17992;DHT22;9121;50.926;5.340;2022-08-19T04:09:12;19.30;99.90
17992;DHT22;9121;50.926;5.340;2022-08-19T04:11:42;19.30;99.90
17992;DHT22;9121;50.926;5.340;2022-08-19T04:14:11;19.30;99.90
17992;DHT22;9121;50.926;5.340;2022-08-19T04:16:38;19.30;99.90
17992;DHT22;9121;50.926;5.340;2022-08-19T04:19:06;19.30;99.90
17992;DHT22;9121;50.926;5.340;2022-08-19T04:21:34;19.30;99.90
17992;DHT22;9121;50.926;5.340;2022-08-19T04:24:01;19.20;99.90
17992;DHT22;9121;50.926;5.340;2022-08-19T04:26:30;19.30;99.90
17992;DHT22;9121;50.926;5.340;2022-08-19T04:29:00;19.20;99.90
17992;DHT22;9121;50.926;5.340;2022-08-19T04:31:30;19.20;99.90
17992;DHT22;9121;50.926;5.340;2022-08-19T04:33:59;19.10;99.90
17992;DHT22;9121;50.926;5.340;2022-08-19T04:36:29;19.10;99.90
17992;DHT22;9121;50.926;5.340;2022-08-19T04:38:59;19.10;99.90
17992;DHT22;9121;50.926;5.340;2022-08-19T04:41:27;19.20;99.90
17992;DHT22;9121;50.926;5.340;2022-08-19T04:44:13;19.10;99.90
17992;DHT22;9121;50.926;5.340;2022-08-19T04:46:44;19.10;99.90
17992;DHT22;9121;50.926;5.340;2022-08-19T04:49:12;19.20;99.90
17992;DHT22;9121;50.926;5.340;2022-08-19T04:51:41;19.20;99.90
17992;DHT22;9121;50.926;5.340;2022-08-19T04:54:09;19.10;99.90
17992;DHT22;9121;50.926;5.340;2022-08-19T04:56:36;19.10;99.90
17992;DHT22;9121;50.926;5.340;2022-08-19T04:59:02;19.10;99.90
17992;DHT22;9121;50.926;5.340;2022-08-19T05:01:32;19.20;99.90
17992;DHT22;9121;50.926;5.340;2022-08-19T05:04:03;19.20;99.90
17992;DHT22;9121;50.926;5.340;2022-08-19T05:06:31;19.20;99.90
17992;DHT22;9121;50.926;5.340;2022-08-19T05:09:00;19.10;99.90
17992;DHT22;9121;50.926;5.340;2022-08-19T05:11:30;19.10;99.90
17992;DHT22;9121;50.926;5.340;2022-08-19T05:13:57;19.10;99.90
17992;DHT22;9121;50.926;5.340;2022-08-19T05:16:26;19.10;99.90
17992;DHT22;9121;50.926;5.340;2022-08-19T05:18:54;19.20;99.90
17992;DHT22;9121;50.926;5.340;2022-08-19T05:21:40;19.20;99.90
17992;DHT22;9121;50.926;5.340;2022-08-19T05:24:26;19.10;99.90
17992;DHT22;9121;50.926;5.340;2022-08-19T05:26:54;19.10;99.90
17992;DHT22;9121;50.926;5.340;2022-08-19T05:29:25;19.10;99.90
17992;DHT22;9121;50.926;5.340;2022-08-19T05:31:54;19.00;99.90
17992;DHT22;9121;50.926;5.340;2022-08-19T05:34:23;19.10;99.90
17992;DHT22;9121;50.926;5.340;2022-08-19T05:36:52;19.10;99.90
17992;DHT22;9121;50.926;5.340;2022-08-19T05:39:23;19.10;99.90
17992;DHT22;9121;50.926;5.340;2022-08-19T05:41:53;19.10;99.90
17992;DHT22;9121;50.926;5.340;2022-08-19T05:44:23;19.10;99.90
17992;DHT22;9121;50.926;5.340;2022-08-19T05:46:50;19.10;99.90
17992;DHT22;9121;50.926;5.340;2022-08-19T05:49:20;19.10;99.90
17992;DHT22;9121;50.926;5.340;2022-08-19T05:51:49;19.20;99.90
17992;DHT22;9121;50.926;5.340;2022-08-19T05:54:16;19.20;99.90
17992;DHT22;9121;50.926;5.340;2022-08-19T05:56:44;19.20;99.90
17992;DHT22;9121;50.926;5.340;2022-08-19T05:59:14;19.20;99.90
17992;DHT22;9121;50.926;5.340;2022-08-19T06:01:43;19.20;99.90
17992;DHT22;9121;50.926;5.340;2022-08-19T06:04:11;19.20;99.90
17992;DHT22;9121;50.926;5.340;2022-08-19T06:06:40;19.20;99.90
17992;DHT22;9121;50.926;5.340;2022-08-19T06:09:08;19.20;99.90
17992;DHT22;9121;50.926;5.340;2022-08-19T06:11:38;19.20;99.90
17992;DHT22;9121;50.926;5.340;2022-08-19T06:14:09;19.30;99.90
17992;DHT22;9121;50.926;5.340;2022-08-19T06:16:38;19.30;99.90
17992;DHT22;9121;50.926;5.340;2022-08-19T06:19:07;19.20;99.90
17992;DHT22;9121;50.926;5.340;2022-08-19T06:21:36;19.10;99.90
17992;DHT22;9121;50.926;5.340;2022-08-19T06:24:04;19.10;99.90
17992;DHT22;9121;50.926;5.340;2022-08-19T06:26:33;19.10;99.90
17992;DHT22;9121;50.926;5.340;2022-08-19T06:29:01;19.10;99.90
17992;DHT22;9121;50.926;5.340;2022-08-19T06:31:29;19.10;99.90
17992;DHT22;9121;50.926;5.340;2022-08-19T06:33:59;19.20;99.90
17992;DHT22;9121;50.926;5.340;2022-08-19T06:36:33;19.30;99.90
17992;DHT22;9121;50.926;5.340;2022-08-19T06:39:01;19.40;99.90
17992;DHT22;9121;50.926;5.340;2022-08-19T06:41:29;19.40;99.90
17992;DHT22;9121;50.926;5.340;2022-08-19T06:43:58;19.30;99.90
17992;DHT22;9121;50.926;5.340;2022-08-19T06:46:25;19.40;99.90
17992;DHT22;9121;50.926;5.340;2022-08-19T06:48:52;19.40;99.90
17992;DHT22;9121;50.926;5.340;2022-08-19T06:51:22;19.50;99.90
17992;DHT22;9121;50.926;5.340;2022-08-19T06:53:50;19.50;99.90
17992;DHT22;9121;50.926;5.340;2022-08-19T06:56:20;19.70;99.90
17992;DHT22;9121;50.926;5.340;2022-08-19T06:58:47;19.70;99.90
17992;DHT22;9121;50.926;5.340;2022-08-19T07:01:18;19.70;99.90
17992;DHT22;9121;50.926;5.340;2022-08-19T07:03:45;19.70;99.90
17992;DHT22;9121;50.926;5.340;2022-08-19T07:06:14;19.70;99.90
17992;DHT22;9121;50.926;5.340;2022-08-19T07:08:43;19.80;99.90
17992;DHT22;9121;50.926;5.340;2022-08-19T07:11:12;19.90;99.90
17992;DHT22;9121;50.926;5.340;2022-08-19T07:13:40;20.00;99.90
17992;DHT22;9121;50.926;5.340;2022-08-19T07:16:11;20.20;99.90
17992;DHT22;9121;50.926;5.340;2022-08-19T07:18:40;20.20;99.90
17992;DHT22;9121;50.926;5.340;2022-08-19T07:21:10;20.30;99.90
17992;DHT22;9121;50.926;5.340;2022-08-19T07:23:37;20.40;99.90
17992;DHT22;9121;50.926;5.340;2022-08-19T07:26:06;20.40;99.90
17992;DHT22;9121;50.926;5.340;2022-08-19T07:28:34;20.40;99.90
17992;DHT22;9121;50.926;5.340;2022-08-19T07:31:06;20.50;99.90
17992;DHT22;9121;50.926;5.340;2022-08-19T07:33:33;20.60;99.90
17992;DHT22;9121;50.926;5.340;2022-08-19T07:36:04;20.70;99.90
17992;DHT22;9121;50.926;5.340;2022-08-19T07:38:31;20.70;99.90
17992;DHT22;9121;50.926;5.340;2022-08-19T07:40:59;20.70;99.90
17992;DHT22;9121;50.926;5.340;2022-08-19T07:43:26;20.80;99.90
17992;DHT22;9121;50.926;5.340;2022-08-19T07:45:53;20.90;99.90
17992;DHT22;9121;50.926;5.340;2022-08-19T07:48:22;20.90;99.90
17992;DHT22;9121;50.926;5.340;2022-08-19T07:50:51;20.90;99.90
17992;DHT22;9121;50.926;5.340;2022-08-19T07:53:20;21.00;99.90
17992;DHT22;9121;50.926;5.340;2022-08-19T07:55:48;21.00;99.90
17992;DHT22;9121;50.926;5.340;2022-08-19T07:58:17;21.00;99.90
17992;DHT22;9121;50.926;5.340;2022-08-19T08:00:46;21.00;99.90
17992;DHT22;9121;50.926;5.340;2022-08-19T08:03:14;21.10;99.90
17992;DHT22;9121;50.926;5.340;2022-08-19T08:05:42;21.10;99.90
17992;DHT22;9121;50.926;5.340;2022-08-19T08:08:28;21.00;99.90
17992;DHT22;9121;50.926;5.340;2022-08-19T08:11:14;21.00;99.90
17992;DHT22;9121;50.926;5.340;2022-08-19T08:13:41;21.10;99.90
17992;DHT22;9121;50.926;5.340;2022-08-19T08:16:09;21.10;99.90
17992;DHT22;9121;50.926;5.340;2022-08-19T08:18:36;21.10;99.90
17992;DHT22;9121;50.926;5.340;2022-08-19T08:21:08;21.00;99.90
17992;DHT22;9121;50.926;5.340;2022-08-19T08:23:36;21.20;99.90
17992;DHT22;9121;50.926;5.340;2022-08-19T08:26:03;21.50;99.90
17992;DHT22;9121;50.926;5.340;2022-08-19T08:28:30;21.80;99.90
17992;DHT22;9121;50.926;5.340;2022-08-19T08:30:58;22.10;99.90
17992;DHT22;9121;50.926;5.340;2022-08-19T08:33:26;22.00;99.90
17992;DHT22;9121;50.926;5.340;2022-08-19T08:35:53;22.00;99.90
17992;DHT22;9121;50.926;5.340;2022-08-19T08:38:20;22.00;99.90
17992;DHT22;9121;50.926;5.340;2022-08-19T08:40:51;22.10;99.90
17992;DHT22;9121;50.926;5.340;2022-08-19T08:43:24;22.30;99.90
17992;DHT22;9121;50.926;5.340;2022-08-19T08:45:59;22.40;99.90
17992;DHT22;9121;50.926;5.340;2022-08-19T08:48:34;22.60;99.90
17992;DHT22;9121;50.926;5.340;2022-08-19T08:51:05;22.70;99.90
17992;DHT22;9121;50.926;5.340;2022-08-19T08:53:34;22.80;99.90
17992;DHT22;9121;50.926;5.340;2022-08-19T08:56:06;22.80;99.90
17992;DHT22;9121;50.926;5.340;2022-08-19T08:58:46;22.20;99.90
17992;DHT22;9121;50.926;5.340;2022-08-19T09:01:14;21.90;99.90
17992;DHT22;9121;50.926;5.340;2022-08-19T09:03:42;22.00;99.90
17992;DHT22;9121;50.926;5.340;2022-08-19T09:06:20;22.30;99.90
17992;DHT22;9121;50.926;5.340;2022-08-19T09:09:00;22.50;99.90
17992;DHT22;9121;50.926;5.340;2022-08-19T09:11:50;22.60;99.90
17992;DHT22;9121;50.926;5.340;2022-08-19T09:14:32;22.90;99.90
17992;DHT22;9121;50.926;5.340;2022-08-19T09:17:00;23.00;99.90
17992;DHT22;9121;50.926;5.340;2022-08-19T09:19:29;23.00;99.90
17992;DHT22;9121;50.926;5.340;2022-08-19T09:21:56;23.10;99.90
17992;DHT22;9121;50.926;5.340;2022-08-19T09:24:26;23.40;99.90
17992;DHT22;9121;50.926;5.340;2022-08-19T09:26:54;23.30;99.90
17992;DHT22;9121;50.926;5.340;2022-08-19T09:29:21;23.30;99.90
17992;DHT22;9121;50.926;5.340;2022-08-19T09:31:48;23.30;99.90
17992;DHT22;9121;50.926;5.340;2022-08-19T09:34:16;23.10;99.90
17992;DHT22;9121;50.926;5.340;2022-08-19T09:36:45;22.60;99.90
17992;DHT22;9121;50.926;5.340;2022-08-19T09:39:12;22.50;99.90
17992;DHT22;9121;50.926;5.340;2022-08-19T09:41:39;22.70;99.90
17992;DHT22;9121;50.926;5.340;2022-08-19T09:44:07;23.00;99.90
17992;DHT22;9121;50.926;5.340;2022-08-19T09:46:38;23.20;99.90
17992;DHT22;9121;50.926;5.340;2022-08-19T09:49:05;23.30;99.90
17992;DHT22;9121;50.926;5.340;2022-08-19T09:51:32;23.50;99.90
17992;DHT22;9121;50.926;5.340;2022-08-19T09:54:00;23.70;99.90
17992;DHT22;9121;50.926;5.340;2022-08-19T09:56:28;23.70;99.90
17992;DHT22;9121;50.926;5.340;2022-08-19T09:58:58;23.80;99.90
17992;DHT22;9121;50.926;5.340;2022-08-19T10:01:27;23.90;99.90
17992;DHT22;9121;50.926;5.340;2022-08-19T10:03:57;23.70;99.90
17992;DHT22;9121;50.926;5.340;2022-08-19T10:06:26;23.60;99.90
17992;DHT22;9121;50.926;5.340;2022-08-19T10:08:57;23.50;99.90
17992;DHT22;9121;50.926;5.340;2022-08-19T10:11:24;23.70;99.90
17992;DHT22;9121;50.926;5.340;2022-08-19T10:13:51;24.20;99.90
17992;DHT22;9121;50.926;5.340;2022-08-19T10:16:21;24.60;99.90
17992;DHT22;9121;50.926;5.340;2022-08-19T10:18:50;24.60;99.90
17992;DHT22;9121;50.926;5.340;2022-08-19T10:21:19;24.50;99.90
17992;DHT22;9121;50.926;5.340;2022-08-19T10:23:49;24.60;99.90
17992;DHT22;9121;50.926;5.340;2022-08-19T10:26:19;24.90;99.90
17992;DHT22;9121;50.926;5.340;2022-08-19T10:28:47;25.40;99.90
17992;DHT22;9121;50.926;5.340;2022-08-19T10:31:16;25.50;99.90
17992;DHT22;9121;50.926;5.340;2022-08-19T10:33:45;25.40;99.90
17992;DHT22;9121;50.926;5.340;2022-08-19T10:36:16;25.50;99.90
17992;DHT22;9121;50.926;5.340;2022-08-19T10:38:45;25.60;99.90
17992;DHT22;9121;50.926;5.340;2022-08-19T10:41:13;25.20;99.90
17992;DHT22;9121;50.926;5.340;2022-08-19T10:43:41;24.70;99.90
17992;DHT22;9121;50.926;5.340;2022-08-19T10:46:10;24.60;99.90
17992;DHT22;9121;50.926;5.340;2022-08-19T10:48:37;24.80;99.90
17992;DHT22;9121;50.926;5.340;2022-08-19T10:51:05;24.80;99.90
17992;DHT22;9121;50.926;5.340;2022-08-19T10:53:51;25.30;99.90
17992;DHT22;9121;50.926;5.340;2022-08-19T10:56:18;25.60;99.90
17992;DHT22;9121;50.926;5.340;2022-08-19T10:59:03;25.50;99.90
17992;DHT22;9121;50.926;5.340;2022-08-19T11:01:31;25.30;99.90
17992;DHT22;9121;50.926;5.340;2022-08-19T11:04:00;25.40;99.90
17992;DHT22;9121;50.926;5.340;2022-08-19T11:06:27;25.60;99.90
17992;DHT22;9121;50.926;5.340;2022-08-19T11:08:56;25.70;99.90
17992;DHT22;9121;50.926;5.340;2022-08-19T11:11:23;25.40;99.90
17992;DHT22;9121;50.926;5.340;2022-08-19T11:13:50;25.40;99.90
17992;DHT22;9121;50.926;5.340;2022-08-19T11:16:20;25.30;99.90
17992;DHT22;9121;50.926;5.340;2022-08-19T11:18:52;25.10;99.90
17992;DHT22;9121;50.926;5.340;2022-08-19T11:21:21;25.20;99.90
17992;DHT22;9121;50.926;5.340;2022-08-19T11:23:51;25.30;99.90
17992;DHT22;9121;50.926;5.340;2022-08-19T11:26:22;25.60;99.90
17992;DHT22;9121;50.926;5.340;2022-08-19T11:28:50;25.90;99.90
17992;DHT22;9121;50.926;5.340;2022-08-19T11:31:21;25.90;99.90
17992;DHT22;9121;50.926;5.340;2022-08-19T11:33:48;25.80;99.90
17992;DHT22;9121;50.926;5.340;2022-08-19T11:36:16;25.80;99.90
17992;DHT22;9121;50.926;5.340;2022-08-19T11:38:43;26.00;99.90
17992;DHT22;9121;50.926;5.340;2022-08-19T11:41:11;26.50;99.90
17992;DHT22;9121;50.926;5.340;2022-08-19T11:43:39;26.80;99.90
17992;DHT22;9121;50.926;5.340;2022-08-19T11:46:07;26.80;99.90
17992;DHT22;9121;50.926;5.340;2022-08-19T11:48:35;26.80;99.90
17992;DHT22;9121;50.926;5.340;2022-08-19T11:51:05;26.90;99.90
17992;DHT22;9121;50.926;5.340;2022-08-19T11:53:34;27.00;99.90
17992;DHT22;9121;50.926;5.340;2022-08-19T11:56:01;26.80;99.90
17992;DHT22;9121;50.926;5.340;2022-08-19T11:58:28;26.80;99.90
17992;DHT22;9121;50.926;5.340;2022-08-19T12:00:57;26.80;99.90
17992;DHT22;9121;50.926;5.340;2022-08-19T12:03:24;26.80;99.90
17992;DHT22;9121;50.926;5.340;2022-08-19T12:05:51;26.30;99.90
17992;DHT22;9121;50.926;5.340;2022-08-19T12:08:19;25.80;99.90
17992;DHT22;9121;50.926;5.340;2022-08-19T12:10:46;25.70;99.90
17992;DHT22;9121;50.926;5.340;2022-08-19T12:13:14;25.80;99.90
17992;DHT22;9121;50.926;5.340;2022-08-19T12:15:46;25.80;99.90
17992;DHT22;9121;50.926;5.340;2022-08-19T12:18:15;25.80;99.90
17992;DHT22;9121;50.926;5.340;2022-08-19T12:20:42;25.90;99.90
17992;DHT22;9121;50.926;5.340;2022-08-19T12:23:11;25.80;99.90
17992;DHT22;9121;50.926;5.340;2022-08-19T12:25:43;26.00;99.90
17992;DHT22;9121;50.926;5.340;2022-08-19T12:28:13;26.10;99.90
17992;DHT22;9121;50.926;5.340;2022-08-19T12:30:41;26.10;99.90
17992;DHT22;9121;50.926;5.340;2022-08-19T12:33:08;26.30;99.90
17992;DHT22;9121;50.926;5.340;2022-08-19T12:35:39;26.80;99.90
17992;DHT22;9121;50.926;5.340;2022-08-19T12:38:06;26.70;99.90
17992;DHT22;9121;50.926;5.340;2022-08-19T12:40:33;26.40;99.90
17992;DHT22;9121;50.926;5.340;2022-08-19T12:43:00;26.10;99.90
17992;DHT22;9121;50.926;5.340;2022-08-19T12:45:27;25.90;99.90
17992;DHT22;9121;50.926;5.340;2022-08-19T12:47:54;25.70;99.90
17992;DHT22;9121;50.926;5.340;2022-08-19T12:50:21;25.80;99.90
17992;DHT22;9121;50.926;5.340;2022-08-19T12:52:49;25.80;99.90
17992;DHT22;9121;50.926;5.340;2022-08-19T12:55:17;25.90;99.90
17992;DHT22;9121;50.926;5.340;2022-08-19T12:57:45;25.80;99.90
17992;DHT22;9121;50.926;5.340;2022-08-19T13:00:16;25.80;99.90
17992;DHT22;9121;50.926;5.340;2022-08-19T13:02:45;25.80;99.90
17992;DHT22;9121;50.926;5.340;2022-08-19T13:05:17;25.90;99.90
17992;DHT22;9121;50.926;5.340;2022-08-19T13:07:46;26.00;99.90
17992;DHT22;9121;50.926;5.340;2022-08-19T13:10:17;26.10;99.90
17992;DHT22;9121;50.926;5.340;2022-08-19T13:12:47;26.10;99.90
17992;DHT22;9121;50.926;5.340;2022-08-19T13:15:15;25.90;99.90
17992;DHT22;9121;50.926;5.340;2022-08-19T13:17:45;25.90;99.90
17992;DHT22;9121;50.926;5.340;2022-08-19T13:20:13;25.70;99.90
17992;DHT22;9121;50.926;5.340;2022-08-19T13:22:39;25.60;99.90
17992;DHT22;9121;50.926;5.340;2022-08-19T13:25:07;25.50;99.90
17992;DHT22;9121;50.926;5.340;2022-08-19T13:27:37;25.50;99.90
17992;DHT22;9121;50.926;5.340;2022-08-19T13:30:06;25.40;99.90
17992;DHT22;9121;50.926;5.340;2022-08-19T13:32:51;25.30;99.90
17992;DHT22;9121;50.926;5.340;2022-08-19T13:35:36;25.10;99.90
17992;DHT22;9121;50.926;5.340;2022-08-19T13:38:03;25.10;99.90
17992;DHT22;9121;50.926;5.340;2022-08-19T13:40:31;25.20;99.90
17992;DHT22;9121;50.926;5.340;2022-08-19T13:43:02;25.30;99.90
17992;DHT22;9121;50.926;5.340;2022-08-19T13:45:31;25.50;99.90
17992;DHT22;9121;50.926;5.340;2022-08-19T13:48:00;25.60;99.90
17992;DHT22;9121;50.926;5.340;2022-08-19T13:50:30;25.60;99.90
17992;DHT22;9121;50.926;5.340;2022-08-19T13:52:57;25.40;99.90
17992;DHT22;9121;50.926;5.340;2022-08-19T13:55:25;25.20;99.90
17992;DHT22;9121;50.926;5.340;2022-08-19T13:57:53;25.40;99.90
17992;DHT22;9121;50.926;5.340;2022-08-19T14:00:23;25.90;99.90
17992;DHT22;9121;50.926;5.340;2022-08-19T14:02:52;26.30;99.90
17992;DHT22;9121;50.926;5.340;2022-08-19T14:05:20;26.60;99.90
17992;DHT22;9121;50.926;5.340;2022-08-19T14:07:47;26.60;99.90
17992;DHT22;9121;50.926;5.340;2022-08-19T14:10:15;26.70;99.90
17992;DHT22;9121;50.926;5.340;2022-08-19T14:12:42;26.90;99.90
17992;DHT22;9121;50.926;5.340;2022-08-19T14:15:11;27.10;99.90
17992;DHT22;9121;50.926;5.340;2022-08-19T14:17:41;27.00;99.90
17992;DHT22;9121;50.926;5.340;2022-08-19T14:20:11;27.30;99.90
17992;DHT22;9121;50.926;5.340;2022-08-19T14:22:40;27.80;99.90
17992;DHT22;9121;50.926;5.340;2022-08-19T14:25:09;28.50;99.90
17992;DHT22;9121;50.926;5.340;2022-08-19T14:27:37;28.90;99.90
17992;DHT22;9121;50.926;5.340;2022-08-19T14:30:06;28.60;99.90
17992;DHT22;9121;50.926;5.340;2022-08-19T14:32:33;28.40;99.90
17992;DHT22;9121;50.926;5.340;2022-08-19T14:35:02;28.50;99.90
17992;DHT22;9121;50.926;5.340;2022-08-19T14:37:29;28.80;99.90
17992;DHT22;9121;50.926;5.340;2022-08-19T14:39:56;29.70;99.90
17992;DHT22;9121;50.926;5.340;2022-08-19T14:42:23;30.60;99.90
17992;DHT22;9121;50.926;5.340;2022-08-19T14:44:50;30.70;99.90
17992;DHT22;9121;50.926;5.340;2022-08-19T14:47:17;30.50;99.90
17992;DHT22;9121;50.926;5.340;2022-08-19T14:49:44;30.00;99.90
17992;DHT22;9121;50.926;5.340;2022-08-19T14:52:12;30.20;99.90
17992;DHT22;9121;50.926;5.340;2022-08-19T14:54:39;29.60;99.90
17992;DHT22;9121;50.926;5.340;2022-08-19T14:57:06;29.50;99.90
17992;DHT22;9121;50.926;5.340;2022-08-19T14:59:34;29.60;99.90
17992;DHT22;9121;50.926;5.340;2022-08-19T15:02:01;30.60;99.90
17992;DHT22;9121;50.926;5.340;2022-08-19T15:04:28;30.70;99.90
17992;DHT22;9121;50.926;5.340;2022-08-19T15:06:55;30.00;99.90
17992;DHT22;9121;50.926;5.340;2022-08-19T15:09:23;29.60;99.90
17992;DHT22;9121;50.926;5.340;2022-08-19T15:11:50;29.70;99.90
17992;DHT22;9121;50.926;5.340;2022-08-19T15:14:17;30.00;99.90
17992;DHT22;9121;50.926;5.340;2022-08-19T15:16:46;30.10;99.90
17992;DHT22;9121;50.926;5.340;2022-08-19T15:19:13;29.70;99.90
17992;DHT22;9121;50.926;5.340;2022-08-19T15:21:41;29.00;99.90
17992;DHT22;9121;50.926;5.340;2022-08-19T15:24:08;28.50;99.90
17992;DHT22;9121;50.926;5.340;2022-08-19T15:26:36;28.00;99.90
17992;DHT22;9121;50.926;5.340;2022-08-19T15:29:04;27.40;99.90
17992;DHT22;9121;50.926;5.340;2022-08-19T15:31:31;27.00;99.90
17992;DHT22;9121;50.926;5.340;2022-08-19T15:34:02;26.50;99.90
17992;DHT22;9121;50.926;5.340;2022-08-19T15:36:31;26.20;99.90
17992;DHT22;9121;50.926;5.340;2022-08-19T15:38:59;26.20;99.90
17992;DHT22;9121;50.926;5.340;2022-08-19T15:41:29;26.30;99.90
17992;DHT22;9121;50.926;5.340;2022-08-19T15:43:59;26.30;99.90
17992;DHT22;9121;50.926;5.340;2022-08-19T15:46:29;26.20;99.90
17992;DHT22;9121;50.926;5.340;2022-08-19T15:48:57;26.20;99.90
17992;DHT22;9121;50.926;5.340;2022-08-19T15:51:24;26.10;99.90
17992;DHT22;9121;50.926;5.340;2022-08-19T15:53:52;26.10;99.90
17992;DHT22;9121;50.926;5.340;2022-08-19T15:56:19;25.80;99.90